Time;durP1;ratioP1;P1;durP2;ratioP2;P2;SDS_P1;SDS_P2;PMS_P1;PMS_P2;Temp;Humidity;BMP_temperature;BMP_pressure;BME280_temperature;BME280_humidity;BME280_pressure;Samples;Min_cycle;Max_cycle;Signal;HPM_P1;HPM_P2
2022/01/14 14:26:29;;;;;;;20.17;14.30;;;3.70;99.90;;;;;;4580009;28;22881;-62
2022/01/14 14:28:56;;;;;;;22.03;15.30;;;3.70;99.90;;;;;;5074089;28;20602;-63
2022/01/14 14:31:28;;;;;;;27.23;17.30;;;3.70;99.90;;;;;;5077008;28;20486;-63
2022/01/14 14:33:55;;;;;;;22.43;16.07;;;3.70;99.90;;;;;;5077424;28;20552;-63
2022/01/14 14:36:26;;;;;;;22.67;16.10;;;3.60;99.90;;;;;;5076407;28;20465;-63
2022/01/14 14:38:53;;;;;;;21.33;15.70;;;3.60;99.90;;;;;;5077428;28;20461;-63
2022/01/14 14:41:22;;;;;;;22.00;17.17;;;3.60;99.90;;;;;;5077065;28;20461;-63
2022/01/14 14:43:48;;;;;;;24.10;19.80;;;3.70;99.90;;;;;;5076973;28;20435;-63
2022/01/14 14:46:20;;;;;;;24.37;17.37;;;3.60;99.90;;;;;;5076919;28;20461;-63
2022/01/14 14:48:52;;;;;;;24.93;16.57;;;3.60;99.90;;;;;;5075855;28;20784;-62
2022/01/14 14:51:25;;;;;;;24.83;18.30;;;3.50;99.90;;;;;;5076120;28;20583;-62
2022/01/14 14:53:54;;;;;;;22.97;16.47;;;3.50;99.90;;;;;;5075712;28;20902;-63
2022/01/14 14:56:25;;;;;;;22.63;17.33;;;3.50;99.90;;;;;;5076028;28;20465;-63
2022/01/14 14:58:55;;;;;;;21.87;16.50;;;3.60;99.90;;;;;;5075529;28;20462;-63
2022/01/14 15:01:26;;;;;;;22.53;15.70;;;3.60;99.90;;;;;;5075529;28;20855;-63
2022/01/14 15:03:57;;;;;;;27.10;18.80;;;3.50;99.90;;;;;;5076145;28;20461;-63
2022/01/14 15:06:28;;;;;;;24.30;18.60;;;3.60;99.90;;;;;;5075830;28;20465;-63
2022/01/14 15:08:55;;;;;;;24.40;17.10;;;3.50;99.90;;;;;;5075533;28;20774;-62
2022/01/14 15:11:26;;;;;;;26.10;19.10;;;3.60;99.90;;;;;;5076009;28;20489;-62
2022/01/14 15:13:53;;;;;;;26.43;18.03;;;3.60;99.90;;;;;;5074593;28;20457;-63
2022/01/14 15:16:47;;;;;;;28.90;21.53;;;3.60;99.90;;;;;;5074687;28;20461;-63
2022/01/14 15:19:16;;;;;;;25.33;18.90;;;3.60;99.90;;;;;;5074914;28;20454;-63
2022/01/14 15:21:46;;;;;;;29.33;19.77;;;3.60;99.90;;;;;;5076121;28;20457;-63
2022/01/14 15:24:19;;;;;;;22.63;18.40;;;3.60;99.90;;;;;;5074555;28;20461;-63
2022/01/14 15:26:47;;;;;;;28.77;21.23;;;3.50;99.90;;;;;;5075328;28;20948;-62
2022/01/14 15:29:15;;;;;;;29.00;20.50;;;3.50;99.90;;;;;;5075700;28;20920;-62
2022/01/14 15:31:43;;;;;;;24.93;17.67;;;3.50;99.90;;;;;;5075811;28;20508;-63
2022/01/14 15:34:11;;;;;;;25.47;18.70;;;3.50;99.90;;;;;;5073924;28;20468;-63
2022/01/14 15:36:38;;;;;;;31.23;21.83;;;3.50;99.90;;;;;;5072182;28;20569;-62
2022/01/14 15:39:05;;;;;;;41.80;30.40;;;3.50;99.90;;;;;;5066164;28;20520;-62
2022/01/14 15:41:33;;;;;;;28.57;20.97;;;3.40;99.90;;;;;;5067695;28;20471;-63
2022/01/14 15:44:03;;;;;;;27.70;20.93;;;3.40;99.90;;;;;;5068803;28;20555;-63
2022/01/14 15:46:31;;;;;;;28.33;19.30;;;3.20;99.90;;;;;;5074508;28;20842;-63
2022/01/14 15:48:58;;;;;;;28.00;19.90;;;3.30;99.90;;;;;;5079543;28;20468;-63
2022/01/14 15:51:28;;;;;;;35.87;25.67;;;3.30;99.90;;;;;;5079563;28;20492;-63
2022/01/14 15:53:57;;;;;;;29.70;21.37;;;3.20;99.90;;;;;;5078660;28;20815;-63
2022/01/14 15:56:25;;;;;;;28.50;21.77;;;3.20;99.90;;;;;;5078649;28;20983;-63
2022/01/14 15:58:54;;;;;;;26.57;20.37;;;3.10;99.90;;;;;;5078441;28;20464;-63
2022/01/14 16:01:23;;;;;;;27.60;19.80;;;3.10;99.90;;;;;;5079213;28;20479;-63
2022/01/14 16:03:52;;;;;;;27.33;19.23;;;3.10;99.90;;;;;;5078426;28;20812;-63
2022/01/14 16:06:19;;;;;;;31.90;22.83;;;3.10;99.90;;;;;;5078977;28;20489;-63
2022/01/14 16:08:46;;;;;;;28.23;21.20;;;3.00;99.90;;;;;;5078320;28;20476;-63
2022/01/14 16:11:13;;;;;;;28.83;20.03;;;3.10;99.90;;;;;;5079293;28;20749;-63
2022/01/14 16:13:41;;;;;;;30.67;21.97;;;3.00;99.90;;;;;;5079001;28;20456;-63
2022/01/14 16:16:09;;;;;;;30.77;23.90;;;3.10;99.90;;;;;;5078801;28;20548;-63
2022/01/14 16:18:37;;;;;;;28.17;20.77;;;3.10;99.90;;;;;;5078157;28;20460;-63
2022/01/14 16:21:08;;;;;;;31.80;21.10;;;3.20;99.90;;;;;;5078751;28;20435;-63
2022/01/14 16:23:35;;;;;;;33.70;24.57;;;3.20;99.90;;;;;;5078656;28;20454;-62
2022/01/14 16:26:05;;;;;;;47.83;34.00;;;3.20;99.90;;;;;;5078136;28;20461;-63
2022/01/14 16:28:31;;;;;;;33.70;24.30;;;3.20;99.90;;;;;;5077562;28;20558;-63
2022/01/14 16:30:59;;;;;;;30.03;22.10;;;3.20;99.90;;;;;;5078861;28;20488;-63
2022/01/14 16:33:27;;;;;;;32.30;23.10;;;3.20;99.90;;;;;;5077897;28;20503;-62
2022/01/14 16:35:58;;;;;;;40.00;29.37;;;3.20;99.90;;;;;;5077408;28;20461;-62
2022/01/14 16:38:27;;;;;;;69.00;49.70;;;3.20;99.90;;;;;;5078180;28;20468;-63
2022/01/14 16:40:55;;;;;;;43.00;29.80;;;3.20;99.90;;;;;;5078445;28;20461;-63
2022/01/14 16:43:26;;;;;;;38.17;24.33;;;3.20;99.90;;;;;;5078919;28;20538;-63
2022/01/14 16:45:53;;;;;;;36.40;24.60;;;3.20;99.90;;;;;;5078027;28;20493;-63
2022/01/14 16:48:23;;;;;;;36.43;24.97;;;3.20;99.90;;;;;;5078003;28;20465;-63
2022/01/14 16:50:50;;;;;;;42.57;26.57;;;3.10;99.90;;;;;;5079077;28;20813;-63
2022/01/14 16:53:18;;;;;;;38.10;26.77;;;3.20;99.90;;;;;;5077502;28;20485;-63
2022/01/14 16:55:45;;;;;;;38.60;26.83;;;3.10;99.90;;;;;;5076087;28;20508;-63
2022/01/14 16:58:13;;;;;;;42.37;31.80;;;3.20;99.90;;;;;;5077406;28;20519;-63
2022/01/14 17:00:40;;;;;;;40.80;27.27;;;3.20;99.90;;;;;;5078003;28;20457;-63
2022/01/14 17:03:10;;;;;;;48.20;30.63;;;3.20;99.90;;;;;;5077611;28;20532;-63
2022/01/14 17:05:37;;;;;;;48.07;33.37;;;3.10;99.90;;;;;;5077549;28;20462;-63
2022/01/14 17:08:07;;;;;;;43.77;26.87;;;3.10;99.90;;;;;;5077940;28;20530;-63
2022/01/14 17:10:37;;;;;;;41.80;27.53;;;3.20;99.90;;;;;;5077430;28;21088;-63
2022/01/14 17:13:04;;;;;;;47.53;28.60;;;3.10;99.90;;;;;;5061845;28;20749;-63
2022/01/14 17:15:31;;;;;;;57.47;39.03;;;3.10;99.90;;;;;;5077349;28;20468;-63
2022/01/14 17:17:59;;;;;;;48.00;27.13;;;3.10;99.90;;;;;;5076742;28;20555;-63
2022/01/14 17:20:31;;;;;;;46.30;27.30;;;3.10;99.90;;;;;;5063435;28;20469;-63
2022/01/14 17:22:59;;;;;;;43.00;25.77;;;3.10;99.90;;;;;;5076979;28;20803;-63
2022/01/14 17:25:26;;;;;;;73.30;44.77;;;3.10;99.90;;;;;;5077311;28;20840;-63
2022/01/14 17:28:00;;;;;;;74.60;44.70;;;3.10;99.90;;;;;;5073977;28;20558;-63
2022/01/14 17:30:27;;;;;;;68.73;39.80;;;3.10;99.90;;;;;;5053513;28;20466;-63
2022/01/14 17:32:54;;;;;;;53.07;35.23;;;3.10;99.90;;;;;;5056689;28;20497;-63
2022/01/14 17:35:21;;;;;;;44.30;27.30;;;3.10;99.90;;;;;;5056974;28;20458;-63
2022/01/14 17:37:48;;;;;;;45.07;29.47;;;3.10;99.90;;;;;;5057036;28;20470;-63
2022/01/14 17:40:15;;;;;;;44.20;27.97;;;3.00;99.90;;;;;;5046143;28;20497;-63
2022/01/14 17:42:44;;;;;;;37.13;27.10;;;3.00;99.90;;;;;;5056623;28;20491;-63
2022/01/14 17:45:19;;;;;;;48.33;31.30;;;3.00;99.90;;;;;;5056980;28;20536;-63
2022/01/14 17:47:47;;;;;;;44.57;28.97;;;3.00;99.90;;;;;;5060497;28;20475;-63
2022/01/14 17:50:17;;;;;;;45.20;26.40;;;3.00;99.90;;;;;;5041115;28;20467;-63
2022/01/14 17:52:44;;;;;;;35.97;23.93;;;3.00;99.90;;;;;;5056190;28;20502;-63
2022/01/14 17:55:12;;;;;;;47.07;28.07;;;3.00;99.90;;;;;;5056694;28;20441;-63
2022/01/14 17:57:39;;;;;;;47.73;26.93;;;3.00;99.90;;;;;;5065376;28;20609;-63
2022/01/14 18:00:08;;;;;;;48.50;28.00;;;2.90;99.90;;;;;;5040992;28;20470;-63
2022/01/14 18:02:37;;;;;;;42.93;25.07;;;2.90;99.90;;;;;;5056677;28;20462;-63
2022/01/14 18:05:08;;;;;;;48.20;26.93;;;2.90;99.90;;;;;;5056785;28;20823;-63
2022/01/14 18:07:39;;;;;;;43.57;25.77;;;2.90;99.90;;;;;;5057115;28;20784;-63
2022/01/14 18:10:07;;;;;;;37.73;24.03;;;2.90;99.90;;;;;;5054547;28;20481;-63
2022/01/14 18:12:47;;;;;;;50.13;28.37;;;2.80;99.90;;;;;;5045708;28;20501;-63
2022/01/14 18:15:17;;;;;;;50.20;29.70;;;2.90;99.90;;;;;;5056466;28;20488;-63
2022/01/14 18:17:46;;;;;;;41.83;25.43;;;2.90;99.90;;;;;;5056423;28;20825;-63
2022/01/14 18:20:15;;;;;;;47.43;26.20;;;2.80;99.90;;;;;;5065818;28;20474;-63
2022/01/14 18:22:43;;;;;;;46.27;23.30;;;2.90;99.90;;;;;;5049477;28;20467;-63
2022/01/14 18:25:12;;;;;;;41.27;23.73;;;2.90;99.90;;;;;;5055920;28;20477;-63
2022/01/14 18:27:40;;;;;;;44.00;24.33;;;2.90;99.90;;;;;;5067056;28;20485;-63
2022/01/14 18:30:12;;;;;;;45.23;24.53;;;2.80;99.90;;;;;;5069532;28;20772;-63
2022/01/14 18:32:39;;;;;;;44.87;23.20;;;2.80;99.90;;;;;;5055415;28;20509;-63
2022/01/14 18:35:09;;;;;;;45.17;22.37;;;2.80;99.90;;;;;;5066623;28;20558;-63
2022/01/14 18:37:39;;;;;;;43.70;23.97;;;2.80;99.90;;;;;;5076513;28;20560;-63
2022/01/14 18:40:07;;;;;;;45.03;23.70;;;2.80;99.90;;;;;;5075459;28;20478;-63
2022/01/14 18:42:34;;;;;;;45.30;24.63;;;2.80;99.90;;;;;;5075731;28;20457;-63
2022/01/14 18:45:08;;;;;;;50.13;26.33;;;2.80;99.90;;;;;;5065814;28;20466;-63
2022/01/14 18:47:36;;;;;;;44.70;23.77;;;2.70;99.90;;;;;;5066455;28;20457;-63
2022/01/14 18:50:03;;;;;;;56.17;27.17;;;2.80;99.90;;;;;;5075345;28;20461;-63
2022/01/14 18:52:32;;;;;;;46.67;26.10;;;2.70;99.90;;;;;;5075219;28;20485;-63
2022/01/14 18:55:02;;;;;;;45.23;25.80;;;2.80;99.90;;;;;;5071262;28;20524;-63
2022/01/14 18:57:29;;;;;;;62.27;27.13;;;2.80;99.90;;;;;;5066870;28;20950;-63
2022/01/14 18:59:56;;;;;;;62.47;29.20;;;2.80;99.90;;;;;;5066358;28;20487;-63
2022/01/14 19:02:29;;;;;;;52.77;25.73;;;2.80;99.90;;;;;;5069967;28;20465;-63
2022/01/14 19:04:56;;;;;;;57.37;26.60;;;2.80;99.90;;;;;;5069953;28;20465;-63
2022/01/14 19:07:28;;;;;;;49.07;25.20;;;2.70;99.90;;;;;;5063636;28;20467;-63
2022/01/14 19:09:56;;;;;;;52.10;25.03;;;2.70;99.90;;;;;;5056166;28;20553;-63
2022/01/14 19:12:24;;;;;;;52.70;24.40;;;2.70;99.90;;;;;;5061150;28;20795;-63
2022/01/14 19:14:51;;;;;;;48.73;23.53;;;2.70;99.90;;;;;;5069336;28;20898;-63
2022/01/14 19:17:18;;;;;;;46.33;22.80;;;2.70;99.90;;;;;;5079730;28;20514;-63
2022/01/14 19:19:47;;;;;;;77.20;24.10;;;2.60;99.90;;;;;;5079639;28;20530;-63
2022/01/14 19:22:15;;;;;;;53.10;25.70;;;2.60;99.90;;;;;;5079172;28;20461;-63
2022/01/14 19:24:43;;;;;;;57.53;24.20;;;2.50;99.90;;;;;;5079413;28;20916;-63
2022/01/14 19:27:14;;;;;;;53.77;27.40;;;2.50;99.90;;;;;;5079270;28;20496;-63
2022/01/14 19:29:45;;;;;;;63.60;29.00;;;2.60;99.90;;;;;;5080103;28;20472;-63
2022/01/14 19:32:12;;;;;;;64.53;24.10;;;2.60;99.90;;;;;;5078549;28;20523;-63
2022/01/14 19:34:40;;;;;;;51.30;21.93;;;2.60;99.90;;;;;;5078957;28;20469;-63
2022/01/14 19:37:10;;;;;;;45.60;23.60;;;2.50;99.90;;;;;;5079690;28;20476;-63
2022/01/14 19:39:38;;;;;;;50.73;22.27;;;2.50;99.90;;;;;;5079338;28;20564;-63
2022/01/14 19:42:06;;;;;;;47.13;21.13;;;2.50;99.90;;;;;;5078980;28;20516;-63
2022/01/14 19:44:34;;;;;;;51.83;24.23;;;2.40;99.90;;;;;;5078253;28;20458;-63
2022/01/14 19:47:03;;;;;;;48.43;20.57;;;2.40;99.90;;;;;;5079430;28;20462;-63
2022/01/14 19:49:32;;;;;;;39.50;20.30;;;2.40;99.90;;;;;;5079588;28;20763;-63
2022/01/14 19:51:59;;;;;;;41.30;19.63;;;2.40;99.90;;;;;;5078996;28;20465;-63
2022/01/14 19:54:27;;;;;;;47.00;21.27;;;2.40;99.90;;;;;;5079266;28;20492;-63
2022/01/14 19:56:54;;;;;;;42.53;20.00;;;2.40;99.90;;;;;;5079524;28;20465;-63
2022/01/14 19:59:22;;;;;;;47.10;23.33;;;2.40;99.90;;;;;;5080228;28;20464;-63
2022/01/14 20:01:50;;;;;;;37.83;20.90;;;2.40;99.90;;;;;;5079682;28;20518;-63
2022/01/14 20:04:18;;;;;;;43.93;20.30;;;2.30;99.90;;;;;;5079058;28;20461;-63
2022/01/14 20:06:45;;;;;;;43.67;18.20;;;2.40;99.90;;;;;;5078814;28;20461;-63
2022/01/14 20:09:12;;;;;;;43.73;18.93;;;2.30;99.90;;;;;;5079052;28;20466;-63
2022/01/14 20:11:39;;;;;;;47.20;20.17;;;2.30;99.90;;;;;;5079008;28;20461;-63
2022/01/14 20:14:09;;;;;;;37.70;19.30;;;2.30;99.90;;;;;;5079165;28;20910;-63
2022/01/14 20:16:36;;;;;;;44.43;19.83;;;2.30;99.90;;;;;;5079413;28;20519;-63
2022/01/14 20:19:04;;;;;;;41.13;20.00;;;2.30;99.90;;;;;;5079673;28;20870;-63
2022/01/14 20:21:34;;;;;;;36.67;17.67;;;2.20;99.90;;;;;;5078167;28;20465;-63
2022/01/14 20:24:06;;;;;;;35.90;16.50;;;2.20;99.90;;;;;;5078053;28;20811;-63
2022/01/14 20:26:33;;;;;;;42.70;17.57;;;2.20;99.90;;;;;;5079191;28;20739;-63
2022/01/14 20:29:02;;;;;;;35.80;16.87;;;2.20;99.90;;;;;;5059705;28;20458;-63
2022/01/14 20:31:29;;;;;;;37.70;18.20;;;2.10;99.90;;;;;;5059479;28;20459;-63
2022/01/14 20:33:56;;;;;;;32.70;16.47;;;2.00;99.90;;;;;;5059035;28;20954;-63
2022/01/14 20:36:26;;;;;;;30.60;17.10;;;2.00;99.90;;;;;;5058152;28;20454;-63
2022/01/14 20:38:57;;;;;;;29.40;15.03;;;2.00;99.90;;;;;;5058571;28;20466;-63
2022/01/14 20:41:31;;;;;;;28.60;13.50;;;2.00;99.90;;;;;;5059484;28;20466;-63
2022/01/14 20:44:02;;;;;;;28.60;15.63;;;1.90;99.90;;;;;;5059256;28;20748;-63
2022/01/14 20:46:35;;;;;;;29.67;15.03;;;1.90;99.90;;;;;;5058778;28;20462;-63
2022/01/14 20:49:02;;;;;;;26.90;15.23;;;1.90;99.90;;;;;;5058804;28;20462;-63
2022/01/14 20:51:33;;;;;;;29.70;15.90;;;1.90;99.90;;;;;;5058588;28;20466;-63
2022/01/14 20:54:01;;;;;;;27.40;14.87;;;1.80;99.90;;;;;;5059106;28;20490;-63
2022/01/14 20:56:32;;;;;;;33.00;19.33;;;1.70;99.90;;;;;;5057686;28;20523;-63
2022/01/14 20:59:01;;;;;;;33.70;16.40;;;1.80;99.90;;;;;;5058355;28;20818;-61
2022/01/14 21:01:29;;;;;;;28.30;14.67;;;1.80;99.90;;;;;;5055921;28;20485;-61
2022/01/14 21:04:03;;;;;;;32.60;17.63;;;1.80;99.90;;;;;;5050458;28;20558;-61
2022/01/14 21:06:36;;;;;;;30.20;16.50;;;1.80;99.90;;;;;;5055622;28;20468;-61
2022/01/14 21:09:06;;;;;;;28.40;16.50;;;1.90;99.90;;;;;;5048098;28;20485;-61
2022/01/14 21:11:33;;;;;;;32.50;17.70;;;1.80;99.90;;;;;;5057927;28;20450;-61
2022/01/14 21:14:00;;;;;;;31.77;16.77;;;1.90;99.90;;;;;;5052466;28;20874;-61
2022/01/14 21:16:30;;;;;;;27.43;15.03;;;1.80;99.90;;;;;;5050203;28;20514;-61
2022/01/14 21:18:58;;;;;;;34.13;17.13;;;1.90;99.90;;;;;;5056493;28;20458;-61
2022/01/14 21:21:25;;;;;;;29.27;15.93;;;1.90;99.90;;;;;;5057477;28;20501;-61
2022/01/14 21:23:56;;;;;;;41.40;17.50;;;1.90;99.90;;;;;;5057312;28;20549;-61
2022/01/14 21:26:26;;;;;;;30.93;16.03;;;2.00;99.90;;;;;;5056468;28;20931;-61
2022/01/14 21:28:53;;;;;;;40.57;17.00;;;2.00;99.90;;;;;;5075243;28;20813;-61
2022/01/14 21:31:23;;;;;;;37.10;17.17;;;1.90;99.90;;;;;;5077062;28;20515;-61
2022/01/14 21:33:51;;;;;;;38.50;15.80;;;1.90;99.90;;;;;;5075971;28;20483;-61
2022/01/14 21:36:18;;;;;;;40.53;17.77;;;1.90;99.90;;;;;;5076764;28;20548;-61
2022/01/14 21:38:45;;;;;;;40.17;15.70;;;1.80;99.90;;;;;;5077140;28;20468;-61
2022/01/14 21:41:17;;;;;;;31.17;15.70;;;1.90;99.90;;;;;;5078124;28;20461;-61
2022/01/14 21:43:44;;;;;;;30.13;14.20;;;1.90;99.90;;;;;;5078482;28;20468;-61
2022/01/14 21:46:14;;;;;;;33.37;15.03;;;1.80;99.90;;;;;;5077318;28;20461;-61
2022/01/14 21:48:41;;;;;;;37.93;15.50;;;1.80;99.90;;;;;;5077770;28;20465;-61
2022/01/14 21:51:11;;;;;;;40.40;15.30;;;1.70;99.90;;;;;;5077685;28;20504;-61
2022/01/14 21:53:38;;;;;;;35.23;14.50;;;1.70;99.90;;;;;;5077446;28;20945;-61
2022/01/14 21:56:10;;;;;;;44.17;15.20;;;1.70;99.90;;;;;;5077947;28;20819;-61
2022/01/14 21:58:41;;;;;;;55.67;14.63;;;1.70;99.90;;;;;;5076720;28;20443;-61
2022/01/14 22:01:13;;;;;;;37.63;14.50;;;1.70;99.90;;;;;;5077296;28;20462;-61
2022/01/14 22:03:40;;;;;;;33.90;14.00;;;1.60;99.90;;;;;;5077724;28;20824;-61
2022/01/14 22:06:07;;;;;;;35.03;14.90;;;1.70;99.90;;;;;;5076870;28;20772;-61
2022/01/14 22:08:40;;;;;;;32.13;14.27;;;1.60;99.90;;;;;;5076688;28;20464;-61
2022/01/14 22:11:07;;;;;;;39.37;15.70;;;1.60;99.90;;;;;;5077717;28;20955;-61
2022/01/14 22:13:40;;;;;;;51.33;15.30;;;1.60;99.90;;;;;;5077138;28;20812;-61
2022/01/14 22:16:08;;;;;;;47.77;15.53;;;1.60;99.90;;;;;;5076914;28;20439;-61
2022/01/14 22:18:35;;;;;;;32.80;14.43;;;1.60;99.90;;;;;;5076241;28;20482;-61
2022/01/14 22:21:03;;;;;;;43.53;15.83;;;1.60;99.90;;;;;;5077546;28;20780;-61
2022/01/14 22:23:30;;;;;;;56.33;17.57;;;1.60;99.90;;;;;;5076735;28;20464;-60
2022/01/14 22:26:00;;;;;;;36.80;12.80;;;1.60;99.90;;;;;;5077527;28;20877;-61
2022/01/14 22:28:26;;;;;;;33.43;13.73;;;1.50;99.90;;;;;;5076452;28;20543;-61
2022/01/14 22:30:53;;;;;;;39.23;13.87;;;1.50;99.90;;;;;;5057770;28;20466;-61
2022/01/14 22:33:24;;;;;;;22.77;12.03;;;1.50;99.90;;;;;;5056423;28;20523;-61
2022/01/14 22:35:52;;;;;;;28.40;12.87;;;1.50;99.90;;;;;;5057039;28;20895;-61
2022/01/14 22:38:19;;;;;;;23.77;13.47;;;1.40;99.90;;;;;;5056877;28;20870;-61
2022/01/14 22:40:49;;;;;;;37.37;12.77;;;1.40;99.90;;;;;;5070674;28;20527;-61
2022/01/14 22:43:18;;;;;;;29.80;13.10;;;1.40;99.90;;;;;;5076756;28;20469;-61
2022/01/14 22:45:47;;;;;;;28.60;12.30;;;1.50;99.90;;;;;;5076797;28;20461;-61
2022/01/14 22:48:17;;;;;;;28.33;13.23;;;1.50;99.90;;;;;;5077068;28;20466;-61
2022/01/14 22:50:47;;;;;;;35.87;13.30;;;1.50;99.90;;;;;;5066693;28;20516;-61
2022/01/14 22:53:14;;;;;;;29.20;14.40;;;1.50;99.90;;;;;;5056868;28;20481;-61
2022/01/14 22:55:41;;;;;;;26.43;12.60;;;1.40;99.90;;;;;;5071952;28;20461;-61
2022/01/14 22:58:09;;;;;;;26.50;12.27;;;1.40;99.90;;;;;;5077320;28;20747;-61
2022/01/14 23:00:38;;;;;;;22.60;11.63;;;1.40;99.90;;;;;;5074784;28;20530;-61
2022/01/14 23:03:05;;;;;;;29.00;13.70;;;1.40;99.90;;;;;;5076405;28;20482;-61
2022/01/14 23:05:35;;;;;;;21.03;11.77;;;1.40;99.90;;;;;;5077082;28;20515;-62
2022/01/14 23:08:04;;;;;;;18.27;11.07;;;1.40;99.90;;;;;;5077155;28;20461;-62
2022/01/14 23:10:31;;;;;;;24.53;13.70;;;1.40;99.90;;;;;;5076635;28;20534;-62
2022/01/14 23:12:58;;;;;;;22.03;12.10;;;1.40;99.90;;;;;;5038534;28;20474;-62
2022/01/14 23:15:25;;;;;;;28.47;12.50;;;1.50;99.90;;;;;;5056530;28;20494;-62
2022/01/14 23:17:53;;;;;;;24.60;13.60;;;1.50;99.90;;;;;;5057173;28;20492;-62
2022/01/14 23:20:21;;;;;;;31.20;14.00;;;1.50;99.90;;;;;;5056481;28;20491;-62
2022/01/14 23:22:49;;;;;;;23.50;12.70;;;1.50;99.90;;;;;;5070125;28;20473;-62
2022/01/14 23:25:21;;;;;;;29.27;12.80;;;1.40;99.90;;;;;;5075484;28;20462;-62
2022/01/14 23:27:51;;;;;;;38.83;14.33;;;1.40;99.90;;;;;;5076515;28;21031;-62
2022/01/14 23:30:19;;;;;;;36.43;13.40;;;1.40;99.90;;;;;;5076353;28;20498;-62
2022/01/14 23:32:47;;;;;;;55.93;14.70;;;1.40;99.90;;;;;;5066029;28;20462;-62
2022/01/14 23:35:16;;;;;;;23.43;13.10;;;1.30;99.90;;;;;;5056677;28;20498;-62
2022/01/14 23:37:49;;;;;;;25.50;13.83;;;1.30;99.90;;;;;;5056681;28;20918;-62
2022/01/14 23:40:22;;;;;;;32.17;12.63;;;1.30;99.90;;;;;;5056630;28;20903;-62
2022/01/14 23:42:55;;;;;;;30.60;12.77;;;1.30;99.90;;;;;;5062720;28;20556;-62
2022/01/14 23:48:06;;;;;;;29.63;14.07;;;1.30;99.90;;;;;;5073711;28;20754;-62
2022/01/14 23:50:33;;;;;;;27.97;13.10;;;1.30;99.90;;;;;;5076421;28;20460;-62
2022/01/14 23:53:01;;;;;;;32.93;14.07;;;1.40;99.90;;;;;;5071504;28;20523;-62
2022/01/14 23:55:30;;;;;;;24.70;13.23;;;1.40;99.90;;;;;;5056661;28;20562;-62
2022/01/14 23:58:06;;;;;;;41.10;17.03;;;1.40;99.90;;;;;;5059913;28;20462;-62
